createdAt,value
2018-04-19T00:00:05.573Z,14.37
2018-04-19T00:02:36.855Z,14.23
2018-04-19T00:05:05.689Z,13.00
2018-04-19T00:07:34.537Z,13.13
2018-04-19T00:10:03.423Z,14.03
2018-04-19T00:12:32.272Z,13.33
2018-04-19T00:15:01.119Z,14.53
2018-04-19T00:17:29.989Z,12.00
2018-04-19T00:19:58.852Z,12.50
2018-04-19T00:22:27.684Z,13.30
2018-04-19T00:24:57.306Z,13.23
2018-04-19T00:27:26.158Z,13.03
2018-04-19T00:29:55.041Z,12.67
2018-04-19T00:32:23.882Z,12.40
2018-04-19T00:34:52.737Z,13.40
2018-04-19T00:37:22.336Z,13.20
2018-04-19T00:39:51.952Z,12.50
2018-04-19T00:42:21.570Z,14.10
2018-04-19T00:44:51.176Z,13.70
2018-04-19T00:47:20.788Z,12.73
2018-04-19T00:49:50.436Z,12.43
2018-04-19T00:52:19.290Z,11.40
2018-04-19T00:54:48.913Z,13.23
2018-04-19T00:57:17.749Z,12.00
2018-04-19T00:59:46.596Z,12.90
2018-04-19T01:02:15.440Z,13.13
2018-04-19T01:04:44.284Z,12.53
2018-04-19T01:07:13.134Z,12.97
2018-04-19T01:09:42.737Z,11.40
2018-04-19T01:12:12.463Z,13.37
2018-04-19T01:14:41.296Z,12.00
2018-04-19T01:17:10.156Z,12.50
2018-04-19T01:19:38.996Z,13.10
2018-04-19T01:22:09.145Z,12.90
2018-04-19T01:24:38.092Z,12.70
2018-04-19T01:27:06.949Z,12.13
2018-04-19T01:29:36.571Z,12.77
2018-04-19T01:32:05.434Z,13.43
2018-04-19T01:34:34.264Z,12.80
2018-04-19T01:37:03.980Z,13.33
2018-04-19T01:39:32.842Z,13.67
2018-04-19T01:42:01.706Z,12.43
2018-04-19T01:44:31.461Z,13.57
2018-04-19T01:47:00.303Z,13.67
2018-04-19T01:49:29.159Z,13.13
2018-04-19T01:51:57.985Z,12.73
2018-04-19T01:54:26.826Z,14.03
2018-04-19T01:56:55.669Z,12.33
2018-04-19T01:59:24.509Z,13.70
2018-04-19T02:01:53.491Z,13.20
2018-04-19T02:04:23.075Z,13.57
2018-04-19T02:06:52.684Z,13.37
2018-04-19T02:09:21.536Z,14.50
2018-04-19T02:11:50.385Z,13.23
2018-04-19T02:14:19.228Z,13.00
2018-04-19T02:16:48.069Z,12.40
2018-04-19T02:19:16.980Z,13.60
2018-04-19T02:21:46.000Z,12.80
2018-04-19T02:24:14.851Z,14.47
2018-04-19T02:26:43.701Z,13.80
2018-04-19T02:29:12.541Z,13.27
2018-04-19T02:31:42.161Z,13.70
2018-04-19T02:34:11.005Z,14.40
2018-04-19T02:36:40.269Z,12.63
2018-04-19T02:39:09.110Z,13.60
2018-04-19T02:41:37.966Z,13.33
2018-04-19T02:44:06.813Z,14.20
2018-04-19T02:46:36.426Z,12.93
2018-04-19T02:49:05.261Z,12.83
2018-04-19T02:51:34.108Z,12.83
2018-04-19T02:54:02.964Z,12.00
2018-04-19T02:56:32.736Z,13.10
2018-04-19T02:59:01.574Z,13.07
2018-04-19T03:01:33.270Z,12.40
2018-04-19T03:04:02.430Z,12.13
2018-04-19T03:06:32.036Z,12.50
2018-04-19T03:09:01.656Z,12.50
2018-04-19T03:11:31.261Z,12.90
2018-04-19T03:14:00.913Z,11.50
2018-04-19T03:16:29.754Z,12.40
2018-04-19T03:18:59.369Z,12.70
2018-04-19T03:21:28.207Z,11.87
2018-04-19T03:23:57.065Z,10.83
2018-04-19T03:26:26.262Z,12.10
2018-04-19T03:28:55.128Z,12.00
2018-04-19T03:31:24.185Z,11.30
2018-04-19T03:33:53.033Z,11.87
2018-04-19T03:36:21.884Z,12.10
2018-04-19T03:38:51.505Z,11.87
2018-04-19T03:41:21.117Z,12.40
2018-04-19T03:43:50.010Z,12.43
2018-04-19T03:46:18.856Z,11.77
2018-04-19T03:48:47.696Z,11.50
2018-04-19T03:51:16.553Z,11.37
2018-04-19T03:53:46.170Z,11.80
2018-04-19T03:56:15.785Z,13.57
2018-04-19T03:58:44.657Z,11.70
2018-04-19T04:01:14.291Z,13.77
2018-04-19T04:03:43.904Z,13.10
2018-04-19T04:06:12.745Z,12.00
2018-04-19T04:08:41.599Z,13.20
2018-04-19T04:11:10.447Z,12.27
2018-04-19T04:13:40.073Z,12.37
2018-04-19T04:16:08.936Z,12.53
2018-04-19T04:21:54.109Z,12.27
2018-04-19T04:24:22.961Z,12.03
2018-04-19T04:26:51.779Z,11.70
2018-04-19T04:29:20.607Z,13.20
2018-04-19T04:31:50.241Z,14.63
2018-04-19T04:34:19.093Z,15.80
2018-04-19T04:36:47.929Z,14.20
2018-04-19T04:39:16.776Z,12.30
2018-04-19T04:41:46.393Z,13.67
2018-04-19T04:44:16.002Z,13.10
2018-04-19T04:46:45.621Z,12.93
2018-04-19T04:49:14.477Z,13.73
2018-04-19T04:51:43.337Z,12.73
2018-04-19T04:54:12.200Z,11.90
2018-04-19T04:56:41.064Z,13.43
2018-04-19T04:59:10.692Z,13.07
2018-04-19T05:01:39.548Z,13.60
2018-04-19T05:04:09.160Z,13.47
2018-04-19T05:06:38.909Z,13.10
2018-04-19T05:09:07.764Z,13.27
2018-04-19T05:11:37.365Z,13.60
2018-04-19T05:14:06.991Z,12.70
2018-04-19T05:16:35.831Z,13.30
2018-04-19T05:19:04.661Z,13.53
2018-04-19T05:21:34.273Z,13.20
2018-04-19T05:24:03.124Z,11.90
2018-04-19T05:26:32.740Z,12.70
2018-04-19T05:29:02.370Z,15.70
2018-04-19T05:31:31.203Z,13.37
2018-04-19T05:34:00.189Z,13.80
2018-04-19T05:36:29.052Z,13.80
2018-04-19T05:38:57.903Z,13.60
2018-04-19T05:41:26.749Z,14.20
2018-04-19T05:43:55.600Z,16.17
2018-04-19T05:46:24.549Z,13.50
2018-04-19T05:48:53.404Z,13.97
2018-04-19T05:51:22.245Z,14.00
2018-04-19T05:53:51.084Z,14.30
2018-04-19T05:56:19.925Z,14.70
2018-04-19T05:58:48.781Z,15.43
2018-04-19T06:01:17.629Z,15.00
2018-04-19T06:03:47.245Z,14.73
2018-04-19T06:06:16.120Z,15.57
2018-04-19T06:08:52.021Z,15.53
2018-04-19T06:11:20.865Z,15.37
2018-04-19T06:13:50.481Z,16.20
2018-04-19T06:16:19.361Z,15.00
2018-04-19T06:18:48.956Z,14.90
2018-04-19T06:21:18.603Z,14.13
2018-04-19T06:23:47.493Z,15.50
2018-04-19T06:26:16.336Z,14.13
2018-04-19T06:28:45.169Z,14.93
2018-04-19T06:31:14.021Z,15.27
2018-04-19T06:33:42.866Z,15.40
2018-04-19T06:36:11.740Z,14.83
2018-04-19T06:38:40.559Z,14.47
2018-04-19T06:41:09.402Z,14.50
2018-04-19T06:43:39.028Z,14.30
2018-04-19T06:46:07.888Z,13.43
2018-04-19T06:48:37.496Z,13.63
2018-04-19T06:51:07.110Z,13.10
2018-04-19T06:53:36.746Z,13.70
2018-04-19T06:56:05.575Z,12.30
2018-04-19T06:58:34.423Z,12.17
2018-04-19T07:01:03.305Z,11.63
2018-04-19T07:03:32.894Z,12.93
2018-04-19T07:06:02.503Z,12.17
2018-04-19T07:08:31.677Z,10.90
2018-04-19T07:11:00.962Z,11.30
2018-04-19T07:13:29.798Z,11.30
2018-04-19T07:15:59.804Z,11.30
2018-04-19T07:18:29.416Z,9.50
2018-04-19T07:20:59.052Z,11.27
2018-04-19T07:23:27.885Z,10.50
2018-04-19T07:25:56.736Z,10.03
2018-04-19T07:28:25.583Z,10.67
2018-04-19T07:30:54.454Z,10.30
2018-04-19T07:33:23.292Z,10.30
2018-04-19T07:35:53.250Z,10.10
2018-04-19T07:38:22.081Z,9.40
2018-04-19T07:40:50.940Z,11.43
2018-04-19T07:43:19.792Z,10.80
2018-04-19T07:45:49.441Z,10.10
2018-04-19T07:48:18.293Z,10.73
2018-04-19T07:50:47.133Z,10.10
2018-04-19T07:53:15.985Z,10.60
2018-04-19T07:55:45.609Z,10.50
2018-04-19T07:58:14.459Z,11.20
2018-04-19T08:00:43.309Z,11.00
2018-04-19T08:03:12.149Z,9.90
2018-04-19T08:05:41.774Z,10.30
2018-04-19T08:08:10.630Z,10.87
2018-04-19T08:10:39.476Z,9.70
2018-04-19T08:13:08.315Z,10.27
2018-04-19T08:15:37.169Z,10.03
2018-04-19T08:18:05.992Z,8.90
2018-04-19T08:20:34.840Z,10.60
2018-04-19T08:23:03.688Z,9.60
2018-04-19T08:25:33.282Z,9.07
2018-04-19T08:28:02.149Z,8.80
2018-04-19T08:30:31.413Z,9.23
2018-04-19T08:33:00.260Z,8.63
2018-04-19T08:35:29.110Z,7.97
2018-04-19T08:37:57.940Z,8.70
2018-04-19T08:40:26.785Z,8.60
2018-04-19T08:42:56.366Z,7.80
2018-04-19T08:45:25.209Z,7.93
2018-04-19T08:47:54.043Z,8.60
2018-04-19T08:50:22.872Z,8.10
2018-04-19T08:52:51.732Z,9.20
2018-04-19T08:55:22.083Z,9.30
2018-04-19T08:57:50.941Z,8.67
2018-04-19T09:00:19.788Z,8.20
2018-04-19T09:02:48.648Z,7.80
2018-04-19T09:05:18.230Z,8.00
2018-04-19T09:07:47.837Z,8.23
2018-04-19T09:10:16.685Z,8.87
2018-04-19T09:12:45.528Z,9.33
2018-04-19T09:15:15.124Z,8.90
2018-04-19T09:17:44.728Z,7.87
2018-04-19T09:20:15.091Z,9.90
2018-04-19T09:22:43.913Z,9.23
2018-04-19T09:25:12.762Z,9.43
2018-04-19T09:27:42.384Z,9.80
2018-04-19T09:30:11.211Z,9.40
2018-04-19T09:32:40.051Z,9.97
2018-04-19T09:35:08.873Z,9.90
2018-04-19T09:37:38.509Z,10.87
2018-04-19T09:40:07.598Z,9.50
2018-04-19T09:42:36.462Z,10.20
2018-04-19T09:45:05.333Z,11.70
2018-04-19T09:47:34.221Z,10.50
2018-04-19T09:50:03.064Z,12.20
2018-04-19T09:52:31.907Z,10.73
2018-04-19T09:55:01.511Z,10.50
2018-04-19T09:57:30.353Z,11.50
2018-04-19T09:59:59.833Z,10.47
2018-04-19T10:02:29.446Z,10.30
2018-04-19T10:05:02.137Z,11.37
2018-04-19T10:07:31.031Z,10.60
2018-04-19T10:09:59.868Z,11.10
2018-04-19T10:12:28.722Z,10.23
2018-04-19T10:14:57.552Z,10.10
2018-04-19T10:17:27.175Z,9.63
2018-04-19T10:19:56.821Z,9.83
2018-04-19T10:22:25.663Z,9.80
2018-04-19T10:24:55.279Z,10.90
2018-04-19T10:27:24.947Z,9.70
2018-04-19T10:29:54.067Z,9.20
2018-04-19T10:32:22.914Z,10.10
2018-04-19T10:34:51.998Z,8.17
2018-04-19T10:37:20.861Z,10.20
2018-04-19T10:39:50.484Z,9.10
2018-04-19T10:42:19.336Z,9.30
2018-04-19T10:44:49.110Z,9.40
2018-04-19T10:47:18.191Z,10.53
2018-04-19T10:49:47.116Z,9.40
2018-04-19T10:52:15.953Z,8.77
2018-04-19T10:54:45.760Z,9.13
2018-04-19T10:57:15.346Z,9.03
2018-04-19T10:59:44.176Z,9.03
2018-04-19T11:02:13.035Z,8.37
2018-04-19T11:04:41.838Z,8.10
2018-04-19T11:07:11.446Z,7.97
2018-04-19T11:09:41.964Z,7.67
2018-04-19T11:12:11.578Z,7.80
2018-04-19T11:14:41.183Z,7.20
2018-04-19T11:17:10.793Z,7.70
2018-04-19T11:19:40.399Z,7.90
2018-04-19T11:22:10.005Z,7.43
2018-04-19T11:24:39.623Z,6.47
2018-04-19T11:27:09.225Z,6.90
2018-04-19T11:29:38.895Z,6.67
2018-04-19T11:32:08.503Z,7.20
2018-04-19T11:34:38.123Z,6.67
2018-04-19T11:37:07.016Z,6.30
2018-04-19T11:39:35.864Z,6.60
2018-04-19T11:42:05.472Z,6.87
2018-04-19T11:44:35.072Z,5.80
2018-04-19T11:47:05.596Z,6.33
2018-04-19T11:49:34.436Z,5.97
2018-04-19T11:52:03.280Z,6.00
2018-04-19T11:54:32.124Z,5.10
2018-04-19T11:57:00.958Z,5.57
2018-04-19T11:59:30.564Z,5.33
2018-04-19T12:01:59.408Z,5.80
2018-04-19T12:04:28.796Z,6.10
2018-04-19T12:06:57.646Z,5.33
2018-04-19T12:09:26.475Z,6.27
2018-04-19T12:11:55.749Z,5.73
2018-04-19T12:14:24.726Z,5.07
2018-04-19T12:16:53.568Z,7.30
2018-04-19T12:19:22.426Z,6.20
2018-04-19T12:21:52.029Z,6.27
2018-04-19T12:24:21.640Z,6.60
2018-04-19T12:26:51.264Z,6.73
2018-04-19T12:29:20.851Z,7.50
2018-04-19T12:31:50.468Z,7.40
2018-04-19T12:34:20.094Z,6.53
2018-04-19T12:36:49.672Z,6.50
2018-04-19T12:39:19.309Z,6.00
2018-04-19T12:41:48.126Z,7.00
2018-04-19T12:44:16.968Z,6.57
2018-04-19T12:46:45.792Z,6.40
2018-04-19T12:49:14.654Z,6.40
2018-04-19T12:51:43.478Z,7.40
2018-04-19T12:54:12.336Z,7.97
2018-04-19T12:56:41.188Z,6.80
2018-04-19T12:59:10.037Z,6.57
2018-04-19T13:01:38.865Z,7.53
2018-04-19T13:04:07.953Z,7.47
2018-04-19T13:06:36.857Z,6.47
2018-04-19T13:09:05.641Z,6.57
2018-04-19T13:11:34.477Z,7.47
2018-04-19T13:14:03.317Z,6.30
2018-04-19T13:16:32.171Z,6.80
2018-04-19T13:19:01.012Z,5.90
2018-04-19T13:21:30.631Z,5.80
2018-04-19T13:24:00.403Z,6.53
2018-04-19T13:26:30.748Z,6.20
2018-04-19T13:29:00.341Z,5.27
2018-04-19T13:31:29.195Z,5.40
2018-04-19T13:33:58.060Z,4.63
2018-04-19T13:36:26.994Z,4.63
2018-04-19T13:38:55.849Z,4.70
2018-04-19T13:41:25.776Z,4.10
2018-04-19T13:43:54.850Z,4.13
2018-04-19T13:46:24.694Z,4.60
2018-04-19T13:48:53.632Z,3.67
2018-04-19T13:51:23.222Z,3.47
2018-04-19T13:53:52.366Z,4.27
2018-04-19T13:56:22.621Z,3.90
2018-04-19T13:58:51.454Z,3.90
2018-04-19T14:01:20.295Z,4.20
2018-04-19T14:03:49.151Z,4.30
2018-04-19T14:06:17.972Z,3.37
2018-04-19T14:08:46.817Z,3.20
2018-04-19T14:11:15.984Z,4.00
2018-04-19T14:13:44.835Z,5.20
2018-04-19T14:16:13.661Z,3.80
2018-04-19T14:18:42.509Z,4.30
2018-04-19T14:21:11.348Z,4.10
2018-04-19T14:23:40.202Z,4.10
2018-04-19T14:26:09.034Z,3.33
2018-04-19T14:28:37.889Z,3.47
2018-04-19T14:31:06.756Z,3.83
2018-04-19T14:33:35.576Z,3.47
2018-04-19T14:36:05.186Z,3.60
2018-04-19T14:38:34.035Z,4.03
2018-04-19T14:41:03.741Z,3.80
2018-04-19T14:43:33.395Z,3.40
2018-04-19T14:46:02.966Z,3.80
2018-04-19T14:48:31.835Z,3.20
2018-04-19T14:51:00.676Z,3.90
2018-04-19T14:53:29.508Z,3.03
2018-04-19T14:55:58.372Z,3.00
2018-04-19T14:58:28.315Z,2.80
2018-04-19T15:00:57.129Z,2.90
2018-04-19T15:03:26.769Z,3.20
2018-04-19T15:05:56.333Z,3.20
2018-04-19T15:08:25.170Z,3.13
2018-04-19T15:10:54.521Z,3.30
2018-04-19T15:13:23.354Z,3.50
2018-04-19T15:15:52.197Z,3.60
2018-04-19T15:18:21.148Z,3.30
2018-04-19T15:20:50.033Z,2.80
2018-04-19T15:23:18.855Z,3.57
2018-04-19T15:25:47.739Z,3.17
2018-04-19T15:28:17.292Z,3.37
2018-04-19T15:30:46.909Z,2.83
2018-04-19T15:33:16.534Z,2.70
2018-04-19T15:35:45.368Z,3.10
2018-04-19T15:38:14.241Z,3.67
2018-04-19T15:40:43.075Z,2.83
2018-04-19T15:43:11.904Z,3.30
2018-04-19T15:45:40.759Z,3.10
2018-04-19T15:48:09.586Z,2.83
2018-04-19T15:50:38.432Z,2.70
2018-04-19T15:53:08.039Z,2.90
2018-04-19T15:55:36.962Z,3.17
2018-04-19T15:58:05.802Z,2.80
2018-04-19T16:00:36.195Z,3.50
2018-04-19T16:03:05.069Z,3.10
2018-04-19T16:05:33.941Z,3.57
2018-04-19T16:08:02.773Z,3.20
2018-04-19T16:10:31.629Z,3.20
2018-04-19T16:13:00.481Z,2.90
2018-04-19T16:15:29.365Z,3.20
2018-04-19T16:17:58.161Z,2.93
2018-04-19T16:20:27.824Z,2.80
2018-04-19T16:22:56.675Z,3.10
2018-04-19T16:25:26.485Z,3.90
2018-04-19T16:27:56.525Z,3.60
2018-04-19T16:30:25.353Z,2.80
2018-04-19T16:32:54.196Z,2.80
2018-04-19T16:35:23.031Z,3.10
2018-04-19T16:37:51.901Z,3.50
2018-04-19T16:40:20.742Z,3.90
2018-04-19T16:42:49.585Z,3.40
2018-04-19T16:45:18.425Z,3.33
2018-04-19T16:47:47.288Z,2.87
2018-04-19T16:50:16.168Z,3.47
2018-04-19T16:52:44.980Z,3.30
2018-04-19T16:55:14.591Z,2.80
2018-04-19T16:57:44.188Z,2.90
2018-04-19T17:00:13.791Z,3.43
2018-04-19T17:02:43.425Z,3.10
2018-04-19T17:05:12.276Z,3.30
2018-04-19T17:07:41.128Z,2.90
2018-04-19T17:10:09.957Z,3.67
2018-04-19T17:12:38.849Z,3.77
2018-04-19T17:15:08.509Z,3.30
2018-04-19T17:17:37.385Z,3.30
2018-04-19T17:20:06.229Z,3.90
2018-04-19T17:22:35.455Z,3.53
2018-04-19T17:25:05.062Z,3.80
2018-04-19T17:27:34.125Z,3.50
2018-04-19T17:30:02.984Z,3.10
2018-04-19T17:32:31.836Z,3.07
2018-04-19T17:35:01.463Z,3.50
2018-04-19T17:37:30.873Z,2.90
2018-04-19T17:39:59.713Z,3.93
2018-04-19T17:42:28.558Z,4.70
2018-04-19T17:44:57.438Z,8.03
2018-04-19T17:47:26.281Z,4.20
2018-04-19T17:49:55.122Z,3.50
2018-04-19T17:52:23.951Z,4.53
2018-04-19T17:54:52.807Z,3.63
2018-04-19T17:57:21.648Z,3.83
2018-04-19T17:59:50.494Z,3.60
2018-04-19T18:02:19.343Z,3.80
2018-04-19T18:04:48.335Z,3.90
2018-04-19T18:07:17.925Z,4.20
2018-04-19T18:09:46.769Z,3.17
2018-04-19T18:12:15.597Z,3.77
2018-04-19T18:14:44.461Z,4.17
2018-04-19T18:17:13.311Z,3.93
2018-04-19T18:19:43.091Z,3.40
2018-04-19T18:22:11.933Z,4.00
2018-04-19T18:24:40.774Z,3.70
2018-04-19T18:27:10.385Z,3.37
2018-04-19T18:29:41.332Z,5.87
2018-04-19T18:32:10.958Z,4.27
2018-04-19T18:34:40.905Z,4.20
2018-04-19T18:37:11.251Z,4.10
2018-04-19T18:39:40.605Z,4.27
2018-04-19T18:42:09.449Z,3.60
2018-04-19T18:44:38.331Z,3.83
2018-04-19T18:47:07.198Z,3.93
2018-04-19T18:49:36.793Z,4.33
2018-04-19T18:52:06.403Z,4.30
2018-04-19T18:54:35.237Z,4.43
2018-04-19T18:57:04.094Z,4.10
2018-04-19T18:59:33.726Z,4.30
2018-04-19T19:02:02.577Z,4.13
2018-04-19T19:04:31.430Z,4.23
2018-04-19T19:07:00.253Z,4.40
2018-04-19T19:09:29.916Z,4.10
2018-04-19T19:11:58.758Z,4.80
2018-04-19T19:14:27.588Z,4.80
2018-04-19T19:16:56.443Z,5.37
2018-04-19T19:19:38.002Z,5.20
2018-04-19T19:22:06.845Z,4.60
2018-04-19T19:24:36.451Z,4.27
2018-04-19T19:27:05.293Z,4.70
2018-04-19T19:29:34.150Z,5.80
2018-04-19T19:32:03.003Z,4.80
2018-04-19T19:34:31.864Z,7.50
2018-04-19T19:37:01.254Z,7.67
2018-04-19T19:39:30.114Z,6.57
2018-04-19T19:41:59.739Z,5.47
2018-04-19T19:44:28.597Z,4.20
2018-04-19T19:46:58.224Z,13.10
2018-04-19T19:49:27.158Z,9.30
2018-04-19T19:51:55.992Z,8.27
2018-04-19T19:54:25.625Z,6.87
2018-04-19T19:56:57.160Z,5.60
2018-04-19T19:59:26.750Z,5.37
2018-04-19T20:01:55.848Z,5.87
2018-04-19T20:04:26.266Z,5.43
2018-04-19T20:06:55.906Z,6.23
2018-04-19T20:09:24.766Z,6.00
2018-04-19T20:11:55.341Z,6.00
2018-04-19T20:14:24.183Z,6.07
2018-04-19T20:16:53.805Z,6.53
2018-04-19T20:19:23.393Z,6.50
2018-04-19T20:21:53.742Z,6.53
2018-04-19T20:24:23.335Z,6.53
2018-04-19T20:26:52.987Z,6.50
2018-04-19T20:29:21.828Z,5.60
2018-04-19T20:31:51.007Z,6.03
2018-04-19T20:34:19.857Z,6.83
2018-04-19T20:36:49.510Z,6.33
2018-04-19T20:39:18.318Z,6.73
2018-04-19T20:41:47.174Z,6.07
2018-04-19T20:44:16.033Z,7.00
2018-04-19T20:46:45.719Z,6.73
2018-04-19T20:49:14.604Z,6.70
2018-04-19T20:51:43.436Z,5.57
2018-04-19T20:54:12.287Z,7.13
2018-04-19T20:56:41.138Z,5.80
2018-04-19T20:59:09.987Z,6.60
2018-04-19T21:01:39.602Z,6.70
2018-04-19T21:04:09.246Z,18.67
2018-04-19T21:06:38.078Z,9.67
2018-04-19T21:09:08.454Z,6.57
2018-04-19T21:11:37.292Z,7.00
2018-04-19T21:14:06.113Z,6.97
2018-04-19T21:16:34.970Z,6.63
2018-04-19T21:19:03.810Z,6.00
2018-04-19T21:21:32.653Z,6.73
2018-04-19T21:24:01.489Z,6.40
2018-04-19T21:26:30.334Z,6.20
2018-04-19T21:28:59.185Z,6.60
2018-04-19T21:31:28.059Z,6.20
2018-04-19T21:33:56.894Z,7.03
2018-04-19T21:36:26.514Z,6.57
2018-04-19T21:38:56.065Z,6.57
2018-04-19T21:41:25.685Z,6.83
2018-04-19T21:43:54.508Z,6.80
2018-04-19T21:46:23.365Z,6.50
2018-04-19T21:48:52.211Z,5.77
2018-04-19T21:51:21.095Z,6.10
2018-04-19T21:53:49.885Z,5.57
2018-04-19T21:56:20.236Z,6.83
2018-04-19T21:58:49.864Z,5.77
2018-04-19T22:01:19.475Z,5.63
2018-04-19T22:03:48.475Z,6.30
2018-04-19T22:06:17.304Z,6.10
2018-04-19T22:08:46.170Z,5.87
2018-04-19T22:11:14.988Z,5.90
2018-04-19T22:13:43.828Z,5.20
2018-04-19T22:16:12.671Z,5.57
2018-04-19T22:18:43.017Z,5.90
2018-04-19T22:21:12.629Z,4.83
2018-04-19T22:23:42.229Z,5.53
2018-04-19T22:26:11.821Z,5.83
2018-04-19T22:28:40.655Z,6.90
2018-04-19T22:31:10.155Z,6.13
2018-04-19T22:33:39.001Z,6.53
2018-04-19T22:36:08.680Z,6.80
2018-04-19T22:38:37.524Z,5.93
2018-04-19T22:41:06.424Z,6.73
2018-04-19T22:43:36.388Z,6.27
2018-04-19T22:46:05.248Z,6.27
2018-04-19T22:48:34.099Z,5.83
2018-04-19T22:51:03.712Z,6.00
2018-04-19T22:53:33.338Z,6.53
2018-04-19T22:56:02.188Z,6.83
2018-04-19T22:58:31.053Z,6.37
2018-04-19T23:00:59.889Z,6.30
2018-04-19T23:03:29.496Z,6.03
2018-04-19T23:05:59.104Z,6.20
2018-04-19T23:08:28.722Z,6.40
2018-04-19T23:10:57.582Z,7.20
2018-04-19T23:13:26.431Z,6.93
2018-04-19T23:15:55.278Z,6.60
2018-04-19T23:18:24.878Z,6.43
2018-04-19T23:20:54.498Z,6.43
2018-04-19T23:23:23.336Z,7.37
2018-04-19T23:25:52.191Z,6.63
2018-04-19T23:28:21.804Z,6.87
2018-04-19T23:30:50.688Z,6.50
2018-04-19T23:33:19.541Z,6.80
2018-04-19T23:35:49.153Z,6.47
2018-04-19T23:38:18.105Z,7.27
2018-04-19T23:40:47.710Z,6.50
2018-04-19T23:43:17.327Z,6.60
2018-04-19T23:45:46.182Z,7.27
2018-04-19T23:48:15.040Z,7.60
2018-04-19T23:50:43.882Z,7.47
2018-04-19T23:53:13.505Z,7.00
2018-04-19T23:55:43.135Z,7.60
2018-04-19T23:58:11.975Z,7.53
